sensor_id;sensor_type;location;lat;lon;timestamp;pressure;altitude;pressure_sealevel;temperature;humidity
50484;BME280;36409;52.168;20.878;2023-04-01T00:01:56;98544.52;;;9.11;75.11
50484;BME280;36409;52.168;20.878;2023-04-01T00:04:25;98543.73;;;9.09;75.66
50484;BME280;36409;52.168;20.878;2023-04-01T00:06:55;98541.12;;;9.09;75.05
50484;BME280;36409;52.168;20.878;2023-04-01T00:09:26;98526.41;;;9.08;74.98
50484;BME280;36409;52.168;20.878;2023-04-01T00:11:58;98528.18;;;9.07;74.99
50484;BME280;36409;52.168;20.878;2023-04-01T00:14:27;98526.48;;;9.06;75.00
50484;BME280;36409;52.168;20.878;2023-04-01T00:16:57;98517.88;;;9.04;75.34
50484;BME280;36409;52.168;20.878;2023-04-01T00:19:27;98516.17;;;9.03;75.32
50484;BME280;36409;52.168;20.878;2023-04-01T00:21:56;98511.94;;;9.01;75.20
50484;BME280;36409;52.168;20.878;2023-04-01T00:24:26;98502.50;;;8.98;75.71
50484;BME280;36409;52.168;20.878;2023-04-01T00:26:56;98506.91;;;8.96;75.46
50484;BME280;36409;52.168;20.878;2023-04-01T00:29:27;98508.72;;;8.94;75.98
50484;BME280;36409;52.168;20.878;2023-04-01T00:31:59;98503.75;;;8.88;75.89
50484;BME280;36409;52.168;20.878;2023-04-01T00:34:29;98504.69;;;8.85;75.31
50484;BME280;36409;52.168;20.878;2023-04-01T00:36:57;98504.77;;;8.84;75.20
50484;BME280;36409;52.168;20.878;2023-04-01T00:39:29;98512.63;;;8.82;75.72
50484;BME280;36409;52.168;20.878;2023-04-01T00:41:58;98517.08;;;8.78;75.78
50484;BME280;36409;52.168;20.878;2023-04-01T00:44:29;98510.23;;;8.76;75.72
50484;BME280;36409;52.168;20.878;2023-04-01T00:46:59;98512.94;;;8.73;76.04
50484;BME280;36409;52.168;20.878;2023-04-01T00:49:31;98510.41;;;8.71;76.12
50484;BME280;36409;52.168;20.878;2023-04-01T00:52:04;98511.31;;;8.70;75.76
50484;BME280;36409;52.168;20.878;2023-04-01T00:54:35;98517.41;;;8.69;76.05
50484;BME280;36409;52.168;20.878;2023-04-01T00:57:07;98511.38;;;8.69;76.05
50484;BME280;36409;52.168;20.878;2023-04-01T00:59:42;98504.47;;;8.68;76.03
50484;BME280;36409;52.168;20.878;2023-04-01T01:02:12;98503.61;;;8.67;76.10
50484;BME280;36409;52.168;20.878;2023-04-01T01:04:41;98501.97;;;8.64;76.12
50484;BME280;36409;52.168;20.878;2023-04-01T01:07:22;98502.88;;;8.63;76.45
50484;BME280;36409;52.168;20.878;2023-04-01T01:10:03;98496.84;;;8.63;75.72
50484;BME280;36409;52.168;20.878;2023-04-01T01:12:40;98496.84;;;8.63;76.05
50484;BME280;36409;52.168;20.878;2023-04-01T01:15:17;98491.64;;;8.63;76.12
50484;BME280;36409;52.168;20.878;2023-04-01T01:17:56;98506.38;;;8.62;76.39
50484;BME280;36409;52.168;20.878;2023-04-01T01:20:56;98498.57;;;8.62;75.83
50484;BME280;36409;52.168;20.878;2023-04-01T01:23:51;98508.14;;;8.62;75.96
50484;BME280;36409;52.168;20.878;2023-04-01T01:26:39;98508.14;;;8.62;76.18
50484;BME280;36409;52.168;20.878;2023-04-01T01:29:16;98504.67;;;8.61;76.06
50484;BME280;36409;52.168;20.878;2023-04-01T01:31:54;98508.14;;;8.62;76.18
50484;BME280;36409;52.168;20.878;2023-04-01T01:34:32;98508.08;;;8.63;76.61
50484;BME280;36409;52.168;20.878;2023-04-01T01:37:08;98508.97;;;8.62;76.67
50484;BME280;36409;52.168;20.878;2023-04-01T01:39:40;98514.17;;;8.62;76.61
50484;BME280;36409;52.168;20.878;2023-04-01T01:42:15;98518.55;;;8.62;76.51
50484;BME280;36409;52.168;20.878;2023-04-01T01:44:47;98512.44;;;8.63;76.50
50484;BME280;36409;52.168;20.878;2023-04-01T01:47:19;98508.14;;;8.62;76.63
50484;BME280;36409;52.168;20.878;2023-04-01T01:49:51;98516.78;;;8.62;76.64
50484;BME280;36409;52.168;20.878;2023-04-01T01:52:22;98508.97;;;8.62;76.76
50484;BME280;36409;52.168;20.878;2023-04-01T01:54:58;98512.44;;;8.63;76.51
50484;BME280;36409;52.168;20.878;2023-04-01T01:57:37;98511.54;;;8.64;76.52
50484;BME280;36409;52.168;20.878;2023-04-01T02:00:17;98502.84;;;8.65;76.33
50484;BME280;36409;52.168;20.878;2023-04-01T02:02:48;98503.73;;;8.64;76.70
50484;BME280;36409;52.168;20.878;2023-04-01T02:05:21;98496.77;;;8.64;76.43
50484;BME280;36409;52.168;20.878;2023-04-01T02:08:00;98502.77;;;8.67;77.14
50484;BME280;36409;52.168;20.878;2023-04-01T02:10:34;98490.60;;;8.67;76.56
50484;BME280;36409;52.168;20.878;2023-04-01T02:13:09;98492.44;;;8.65;76.87
50484;BME280;36409;52.168;20.878;2023-04-01T02:15:46;98489.84;;;8.65;76.62
50484;BME280;36409;52.168;20.878;2023-04-01T02:18:19;98488.06;;;8.65;76.92
50484;BME280;36409;52.168;20.878;2023-04-01T02:20:52;98492.37;;;8.67;76.72
50484;BME280;36409;52.168;20.878;2023-04-01T02:23:21;98488.97;;;8.64;76.45
50484;BME280;36409;52.168;20.878;2023-04-01T02:25:52;98483.87;;;8.61;76.92
50484;BME280;36409;52.168;20.878;2023-04-01T02:28:23;98489.14;;;8.60;77.11
50484;BME280;36409;52.168;20.878;2023-04-01T02:30:54;98482.30;;;8.57;76.60
50484;BME280;36409;52.168;20.878;2023-04-01T02:33:25;98480.70;;;8.53;77.00
50484;BME280;36409;52.168;20.878;2023-04-01T02:35:56;98473.00;;;8.50;76.90
50484;BME280;36409;52.168;20.878;2023-04-01T02:38:27;98473.97;;;8.47;76.91
50484;BME280;36409;52.168;20.878;2023-04-01T02:40:59;98466.27;;;8.44;77.30
50484;BME280;36409;52.168;20.878;2023-04-01T02:43:29;98475.88;;;8.42;77.03
50484;BME280;36409;52.168;20.878;2023-04-01T02:45:58;98475.88;;;8.42;77.17
50484;BME280;36409;52.168;20.878;2023-04-01T02:48:28;98474.20;;;8.40;76.87
50484;BME280;36409;52.168;20.878;2023-04-01T02:50:58;98479.41;;;8.40;77.31
50484;BME280;36409;52.168;20.878;2023-04-01T02:53:28;98489.07;;;8.36;77.25
50484;BME280;36409;52.168;20.878;2023-04-01T02:55:58;98491.73;;;8.34;77.02
50484;BME280;36409;52.168;20.878;2023-04-01T02:58:27;98491.83;;;8.31;76.77
50484;BME280;36409;52.168;20.878;2023-04-01T03:00:56;98491.92;;;8.28;76.92
50484;BME280;36409;52.168;20.878;2023-04-01T03:03:27;98492.89;;;8.26;77.31
50484;BME280;36409;52.168;20.878;2023-04-01T03:05:57;98490.36;;;8.24;77.11
50484;BME280;36409;52.168;20.878;2023-04-01T03:08:28;98489.49;;;8.24;76.89
50484;BME280;36409;52.168;20.878;2023-04-01T03:10:57;98498.19;;;8.23;77.38
50484;BME280;36409;52.168;20.878;2023-04-01T03:13:29;98495.66;;;8.21;77.20
50484;BME280;36409;52.168;20.878;2023-04-01T03:15:58;98493.05;;;8.21;76.88
50484;BME280;36409;52.168;20.878;2023-04-01T03:18:28;98495.72;;;8.19;77.07
50484;BME280;36409;52.168;20.878;2023-04-01T03:20:58;98498.31;;;8.19;76.91
50484;BME280;36409;52.168;20.878;2023-04-01T03:23:40;98508.71;;;8.19;77.23
50484;BME280;36409;52.168;20.878;2023-04-01T03:26:10;98500.91;;;8.19;77.71
50484;BME280;36409;52.168;20.878;2023-04-01T03:28:39;98502.65;;;8.19;77.38
50484;BME280;36409;52.168;20.878;2023-04-01T03:31:08;98507.01;;;8.18;77.14
50484;BME280;36409;52.168;20.878;2023-04-01T03:33:42;98509.61;;;8.18;77.49
50484;BME280;36409;52.168;20.878;2023-04-01T03:36:12;98511.34;;;8.18;77.28
50484;BME280;36409;52.168;20.878;2023-04-01T03:38:41;98508.71;;;8.19;77.69
50484;BME280;36409;52.168;20.878;2023-04-01T03:41:14;98510.45;;;8.19;77.57
50484;BME280;36409;52.168;20.878;2023-04-01T03:43:45;98510.45;;;8.19;77.41
50484;BME280;36409;52.168;20.878;2023-04-01T03:46:20;98519.94;;;8.20;77.62
50484;BME280;36409;52.168;20.878;2023-04-01T03:48:56;98516.51;;;8.19;77.36
50484;BME280;36409;52.168;20.878;2023-04-01T03:51:27;98515.61;;;8.21;77.45
50484;BME280;36409;52.168;20.878;2023-04-01T03:53:57;98522.55;;;8.20;77.86
50484;BME280;36409;52.168;20.878;2023-04-01T03:56:28;98526.84;;;8.21;77.35
50484;BME280;36409;52.168;20.878;2023-04-01T03:58:57;98528.55;;;8.22;77.64
50484;BME280;36409;52.168;20.878;2023-04-01T04:01:27;98527.70;;;8.22;77.93
50484;BME280;36409;52.168;20.878;2023-04-01T04:04:00;98533.80;;;8.21;78.18
50484;BME280;36409;52.168;20.878;2023-04-01T04:06:30;98529.37;;;8.23;77.93
50484;BME280;36409;52.168;20.878;2023-04-01T04:08:58;98530.31;;;8.22;78.03
50484;BME280;36409;52.168;20.878;2023-04-01T04:11:30;98541.60;;;8.21;77.60
50484;BME280;36409;52.168;20.878;2023-04-01T04:13:59;98547.64;;;8.21;77.53
50484;BME280;36409;52.168;20.878;2023-04-01T04:16:28;98546.80;;;8.21;78.28
50484;BME280;36409;52.168;20.878;2023-04-01T04:19:03;98544.20;;;8.21;78.25
50484;BME280;36409;52.168;20.878;2023-04-01T04:21:32;98552.00;;;8.21;77.98
50484;BME280;36409;52.168;20.878;2023-04-01T04:24:02;98556.33;;;8.20;77.91
50484;BME280;36409;52.168;20.878;2023-04-01T04:26:48;98558.09;;;8.19;78.00
50484;BME280;36409;52.168;20.878;2023-04-01T04:29:17;98557.20;;;8.21;78.08
50484;BME280;36409;52.168;20.878;2023-04-01T04:31:47;98565.77;;;8.23;78.27
50484;BME280;36409;52.168;20.878;2023-04-01T04:34:16;98563.16;;;8.23;78.06
50484;BME280;36409;52.168;20.878;2023-04-01T04:36:46;98554.44;;;8.25;78.00
50484;BME280;36409;52.168;20.878;2023-04-01T04:39:17;98560.45;;;8.27;78.16
50484;BME280;36409;52.168;20.878;2023-04-01T04:41:47;98559.39;;;8.33;77.79
50484;BME280;36409;52.168;20.878;2023-04-01T04:44:16;98557.47;;;8.38;77.77
50484;BME280;36409;52.168;20.878;2023-04-01T04:46:45;98559.97;;;8.41;77.99
50484;BME280;36409;52.168;20.878;2023-04-01T04:49:16;98556.47;;;8.42;78.02
50484;BME280;36409;52.168;20.878;2023-04-01T04:51:45;98556.50;;;8.41;77.78
50484;BME280;36409;52.168;20.878;2023-04-01T04:54:16;98555.67;;;8.40;77.88
50484;BME280;36409;52.168;20.878;2023-04-01T04:56:58;98561.70;;;8.41;78.15
50484;BME280;36409;52.168;20.878;2023-04-01T04:59:28;98567.80;;;8.40;78.08
50484;BME280;36409;52.168;20.878;2023-04-01T05:02:17;98558.27;;;8.40;78.33
50484;BME280;36409;52.168;20.878;2023-04-01T05:04:46;98566.91;;;8.41;77.75
50484;BME280;36409;52.168;20.878;2023-04-01T05:07:16;98563.31;;;8.45;78.30
50484;BME280;36409;52.168;20.878;2023-04-01T05:09:45;98564.98;;;8.47;78.17
50484;BME280;36409;52.168;20.878;2023-04-01T05:12:15;98563.11;;;8.51;78.24
50484;BME280;36409;52.168;20.878;2023-04-01T05:14:57;98562.12;;;8.55;78.09
50484;BME280;36409;52.168;20.878;2023-04-01T05:17:28;98565.30;;;8.63;78.14
50484;BME280;36409;52.168;20.878;2023-04-01T05:19:58;98573.38;;;8.81;78.18
50484;BME280;36409;52.168;20.878;2023-04-01T05:22:31;98575.30;;;9.00;77.77
50484;BME280;36409;52.168;20.878;2023-04-01T05:25:01;98569.11;;;9.50;77.59
50484;BME280;36409;52.168;20.878;2023-04-01T05:27:31;98568.93;;;9.54;77.24
50484;BME280;36409;52.168;20.878;2023-04-01T05:30:02;98573.52;;;9.48;77.59
50484;BME280;36409;52.168;20.878;2023-04-01T05:32:55;98572.14;;;9.39;77.57
50484;BME280;36409;52.168;20.878;2023-04-01T05:35:26;98571.52;;;9.32;77.60
50484;BME280;36409;52.168;20.878;2023-04-01T05:37:55;98565.69;;;9.25;78.20
50484;BME280;36409;52.168;20.878;2023-04-01T05:40:25;98576.21;;;9.22;77.64
50484;BME280;36409;52.168;20.878;2023-04-01T05:42:55;98575.48;;;9.19;78.16
50484;BME280;36409;52.168;20.878;2023-04-01T05:45:25;98570.48;;;9.12;77.46
50484;BME280;36409;52.168;20.878;2023-04-01T05:48:05;98581.13;;;9.06;78.18
50484;BME280;36409;52.168;20.878;2023-04-01T05:50:40;98579.53;;;9.02;78.28
50484;BME280;36409;52.168;20.878;2023-04-01T05:53:11;98577.06;;;8.99;78.22
50484;BME280;36409;52.168;20.878;2023-04-01T05:55:42;98581.51;;;8.95;77.69
50484;BME280;36409;52.168;20.878;2023-04-01T05:58:12;98584.11;;;8.95;78.35
50484;BME280;36409;52.168;20.878;2023-04-01T06:00:42;98581.41;;;8.99;77.81
50484;BME280;36409;52.168;20.878;2023-04-01T06:03:13;98581.41;;;8.99;77.87
50484;BME280;36409;52.168;20.878;2023-04-01T06:05:44;98583.11;;;9.00;78.02
50484;BME280;36409;52.168;20.878;2023-04-01T06:08:23;98585.61;;;9.03;77.63
50484;BME280;36409;52.168;20.878;2023-04-01T06:11:03;98583.63;;;9.09;77.97
50484;BME280;36409;52.168;20.878;2023-04-01T06:13:50;98586.80;;;9.18;78.42
50484;BME280;36409;52.168;20.878;2023-04-01T06:16:35;98586.62;;;9.22;77.63
50484;BME280;36409;52.168;20.878;2023-04-01T06:19:18;98586.62;;;9.22;78.54
50484;BME280;36409;52.168;20.878;2023-04-01T06:22:13;98587.42;;;9.24;77.77
50484;BME280;36409;52.168;20.878;2023-04-01T06:27:59;98588.25;;;9.25;77.95
50484;BME280;36409;52.168;20.878;2023-04-01T06:30:42;98590.86;;;9.25;78.09
50484;BME280;36409;52.168;20.878;2023-04-01T06:33:24;98594.33;;;9.25;78.29
50484;BME280;36409;52.168;20.878;2023-04-01T06:36:13;98594.27;;;9.27;77.76
50484;BME280;36409;52.168;20.878;2023-04-01T06:38:59;98586.45;;;9.27;77.89
50484;BME280;36409;52.168;20.878;2023-04-01T06:42:04;98590.75;;;9.28;77.81
50484;BME280;36409;52.168;20.878;2023-04-01T06:44:46;98598.56;;;9.28;77.75
50484;BME280;36409;52.168;20.878;2023-04-01T06:47:53;98600.27;;;9.29;77.99
50484;BME280;36409;52.168;20.878;2023-04-01T06:50:51;98596.83;;;9.29;78.18
50484;BME280;36409;52.168;20.878;2023-04-01T06:53:46;98593.29;;;9.30;77.76
50484;BME280;36409;52.168;20.878;2023-04-01T06:56:43;98595.79;;;9.33;78.07
50484;BME280;36409;52.168;20.878;2023-04-01T06:59:28;98598.35;;;9.34;78.02
50484;BME280;36409;52.168;20.878;2023-04-01T07:02:01;98600.89;;;9.36;77.96
50484;BME280;36409;52.168;20.878;2023-04-01T07:04:35;98595.75;;;9.34;78.04
50484;BME280;36409;52.168;20.878;2023-04-01T07:07:14;98599.26;;;9.33;77.88
50484;BME280;36409;52.168;20.878;2023-04-01T07:09:58;98601.09;;;9.30;77.99
50484;BME280;36409;52.168;20.878;2023-04-01T07:12:40;98602.03;;;9.29;78.05
50484;BME280;36409;52.168;20.878;2023-04-01T07:15:35;98600.38;;;9.26;77.59
50484;BME280;36409;52.168;20.878;2023-04-01T07:18:09;98599.53;;;9.25;77.75
50484;BME280;36409;52.168;20.878;2023-04-01T07:20:40;98593.47;;;9.25;77.40
50484;BME280;36409;52.168;20.878;2023-04-01T07:23:15;98595.89;;;9.30;78.38
50484;BME280;36409;52.168;20.878;2023-04-01T07:25:56;98592.11;;;9.38;78.41
50484;BME280;36409;52.168;20.878;2023-04-01T07:28:33;98600.19;;;9.54;77.42
50484;BME280;36409;52.168;20.878;2023-04-01T07:34:38;98596.56;;;9.81;78.09
50484;BME280;36409;52.168;20.878;2023-04-01T07:37:12;98595.55;;;9.85;77.81
50484;BME280;36409;52.168;20.878;2023-04-01T07:39:51;98597.00;;;9.92;78.50
50484;BME280;36409;52.168;20.878;2023-04-01T07:42:37;98600.92;;;10.02;78.53
50484;BME280;36409;52.168;20.878;2023-04-01T07:45:18;98593.67;;;10.11;78.32
50484;BME280;36409;52.168;20.878;2023-04-01T07:48:10;98605.80;;;10.12;77.29
50484;BME280;36409;52.168;20.878;2023-04-01T07:50:51;98610.22;;;10.10;77.44
50484;BME280;36409;52.168;20.878;2023-04-01T07:53:29;98604.14;;;10.09;78.50
50484;BME280;36409;52.168;20.878;2023-04-01T07:56:06;98611.02;;;10.12;78.35
50484;BME280;36409;52.168;20.878;2023-04-01T07:58:52;98597.98;;;10.12;78.18
50484;BME280;36409;52.168;20.878;2023-04-01T08:01:49;98605.66;;;10.15;77.50
50484;BME280;36409;52.168;20.878;2023-04-01T08:04:35;98610.63;;;10.21;78.15
50484;BME280;36409;52.168;20.878;2023-04-01T08:07:10;98611.09;;;10.31;77.25
50484;BME280;36409;52.168;20.878;2023-04-01T08:09:52;98610.77;;;10.40;77.96
50484;BME280;36409;52.168;20.878;2023-04-01T08:12:51;98611.28;;;10.48;78.17
50484;BME280;36409;52.168;20.878;2023-04-01T08:15:49;98611.09;;;10.53;78.32
50484;BME280;36409;52.168;20.878;2023-04-01T08:18:45;98614.73;;;10.49;78.09
50484;BME280;36409;52.168;20.878;2023-04-01T08:21:20;98617.68;;;10.41;77.56
50484;BME280;36409;52.168;20.878;2023-04-01T08:23:55;98616.06;;;10.37;77.90
50484;BME280;36409;52.168;20.878;2023-04-01T08:26:36;98617.09;;;10.33;78.07
50484;BME280;36409;52.168;20.878;2023-04-01T08:29:11;98623.22;;;10.32;78.16
50484;BME280;36409;52.168;20.878;2023-04-01T08:31:49;98625.22;;;10.25;77.83
50484;BME280;36409;52.168;20.878;2023-04-01T08:34:24;98635.13;;;10.17;77.42
50484;BME280;36409;52.168;20.878;2023-04-01T08:37:00;98630.09;;;10.12;77.96
50484;BME280;36409;52.168;20.878;2023-04-01T08:39:35;98623.37;;;10.07;77.91
50484;BME280;36409;52.168;20.878;2023-04-01T08:42:29;98630.54;;;10.01;77.55
50484;BME280;36409;52.168;20.878;2023-04-01T08:45:20;98632.35;;;9.99;77.78
50484;BME280;36409;52.168;20.878;2023-04-01T08:48:10;98634.95;;;9.99;77.46
50484;BME280;36409;52.168;20.878;2023-04-01T08:51:07;98630.39;;;10.04;77.52
50484;BME280;36409;52.168;20.878;2023-04-01T08:53:54;98639.50;;;10.16;77.23
50484;BME280;36409;52.168;20.878;2023-04-01T08:56:36;98638.41;;;10.22;77.26
50484;BME280;36409;52.168;20.878;2023-04-01T08:59:28;98636.52;;;10.26;78.01
50484;BME280;36409;52.168;20.878;2023-04-01T09:08:24;98634.28;;;10.39;77.15
50484;BME280;36409;52.168;20.878;2023-04-01T09:11:06;98638.47;;;10.43;76.99
50484;BME280;36409;52.168;20.878;2023-04-01T09:14:19;98639.19;;;10.46;77.49
50484;BME280;36409;52.168;20.878;2023-04-01T09:17:23;98634.17;;;10.42;77.01
50484;BME280;36409;52.168;20.878;2023-04-01T09:20:19;98643.17;;;10.33;76.76
50484;BME280;36409;52.168;20.878;2023-04-01T09:23:13;98640.72;;;10.30;77.25
50484;BME280;36409;52.168;20.878;2023-04-01T09:25:54;98651.30;;;10.25;77.72
50484;BME280;36409;52.168;20.878;2023-04-01T09:28:37;98658.40;;;10.22;76.92
50484;BME280;36409;52.168;20.878;2023-04-01T09:31:26;98662.17;;;10.14;76.76
50484;BME280;36409;52.168;20.878;2023-04-01T09:37:51;98659.75;;;10.10;77.11
50484;BME280;36409;52.168;20.878;2023-04-01T09:40:36;98658.77;;;10.12;77.21
50484;BME280;36409;52.168;20.878;2023-04-01T09:43:27;98661.16;;;10.18;76.60
50484;BME280;36409;52.168;20.878;2023-04-01T09:46:18;98651.26;;;10.27;76.51
50484;BME280;36409;52.168;20.878;2023-04-01T09:49:38;98653.22;;;10.44;76.85
50484;BME280;36409;52.168;20.878;2023-04-01T09:52:34;98649.95;;;10.59;77.56
50484;BME280;36409;52.168;20.878;2023-04-01T10:02:36;98657.47;;;10.67;76.59
50484;BME280;36409;52.168;20.878;2023-04-01T10:05:51;98661.25;;;10.60;76.53
50484;BME280;36409;52.168;20.878;2023-04-01T10:08:56;98661.14;;;10.63;76.38
50484;BME280;36409;52.168;20.878;2023-04-01T10:15:03;98666.41;;;10.82;76.49
50484;BME280;36409;52.168;20.878;2023-04-01T10:18:03;98671.90;;;10.96;76.20
50484;BME280;36409;52.168;20.878;2023-04-01T10:20:51;98672.48;;;11.03;77.16
50484;BME280;36409;52.168;20.878;2023-04-01T10:23:56;98668.05;;;11.05;77.00
50484;BME280;36409;52.168;20.878;2023-04-01T10:27:01;98673.40;;;11.02;76.19
50484;BME280;36409;52.168;20.878;2023-04-01T10:33:39;98672.02;;;10.93;76.66
50484;BME280;36409;52.168;20.878;2023-04-01T10:36:53;98677.52;;;10.87;76.20
50484;BME280;36409;52.168;20.878;2023-04-01T10:43:40;98674.19;;;10.84;77.11
50484;BME280;36409;52.168;20.878;2023-04-01T10:46:33;98664.59;;;10.84;75.95
50484;BME280;36409;52.168;20.878;2023-04-01T10:49:44;98667.98;;;10.86;76.65
50484;BME280;36409;52.168;20.878;2023-04-01T10:52:44;98664.98;;;10.95;76.81
50484;BME280;36409;52.168;20.878;2023-04-01T10:55:38;98660.93;;;11.09;75.74
50484;BME280;36409;52.168;20.878;2023-04-01T10:59:10;98665.03;;;11.15;76.32
50484;BME280;36409;52.168;20.878;2023-04-01T11:05:57;98669.22;;;11.19;76.26
50484;BME280;36409;52.168;20.878;2023-04-01T11:08:57;98674.83;;;11.30;76.01
50484;BME280;36409;52.168;20.878;2023-04-01T11:15:18;98675.14;;;11.62;75.61
50484;BME280;36409;52.168;20.878;2023-04-01T11:24:53;98671.75;;;11.60;75.66
50484;BME280;36409;52.168;20.878;2023-04-01T11:27:59;98668.30;;;11.59;75.21
50484;BME280;36409;52.168;20.878;2023-04-01T11:30:56;98674.57;;;11.55;75.60
50484;BME280;36409;52.168;20.878;2023-04-01T11:33:36;98671.83;;;11.58;76.07
50484;BME280;36409;52.168;20.878;2023-04-01T11:36:29;98673.31;;;11.64;75.54
50484;BME280;36409;52.168;20.878;2023-04-01T11:39:19;98673.02;;;11.70;75.89
50484;BME280;36409;52.168;20.878;2023-04-01T11:42:17;98668.28;;;11.79;75.75
50484;BME280;36409;52.168;20.878;2023-04-01T11:45:07;98673.29;;;11.83;75.49
50484;BME280;36409;52.168;20.878;2023-04-01T11:48:14;98668.14;;;11.82;75.67
50484;BME280;36409;52.168;20.878;2023-04-01T11:51:07;98671.67;;;11.81;75.74
50484;BME280;36409;52.168;20.878;2023-04-01T11:53:52;98674.20;;;11.82;76.03
50484;BME280;36409;52.168;20.878;2023-04-01T11:56:48;98673.16;;;11.86;75.04
50484;BME280;36409;52.168;20.878;2023-04-01T11:59:53;98674.94;;;11.86;75.15
50484;BME280;36409;52.168;20.878;2023-04-01T12:02:37;98675.16;;;11.81;74.63
50484;BME280;36409;52.168;20.878;2023-04-01T12:05:27;98667.14;;;11.84;75.50
50484;BME280;36409;52.168;20.878;2023-04-01T12:08:11;98683.27;;;11.94;75.88
50484;BME280;36409;52.168;20.878;2023-04-01T12:10:51;98676.71;;;12.04;75.65
50484;BME280;36409;52.168;20.878;2023-04-01T12:13:38;98672.74;;;12.15;75.69
50484;BME280;36409;52.168;20.878;2023-04-01T12:16:26;98677.53;;;12.24;75.28
50484;BME280;36409;52.168;20.878;2023-04-01T12:19:13;98677.08;;;12.33;75.49
50484;BME280;36409;52.168;20.878;2023-04-01T12:21:55;98678.36;;;12.44;74.91
50484;BME280;36409;52.168;20.878;2023-04-01T12:24:48;98682.91;;;12.58;75.40
50484;BME280;36409;52.168;20.878;2023-04-01T12:27:45;98683.05;;;12.72;74.85
50484;BME280;36409;52.168;20.878;2023-04-01T12:30:32;98681.75;;;12.81;74.81
50484;BME280;36409;52.168;20.878;2023-04-01T12:33:36;98688.70;;;13.00;74.86
50484;BME280;36409;52.168;20.878;2023-04-01T12:36:21;98684.48;;;13.31;75.04
50484;BME280;36409;52.168;20.878;2023-04-01T12:39:14;98689.16;;;13.59;75.01
50484;BME280;36409;52.168;20.878;2023-04-01T12:41:54;98690.62;;;13.81;74.47
50484;BME280;36409;52.168;20.878;2023-04-01T12:44:38;98683.27;;;13.87;73.79
50484;BME280;36409;52.168;20.878;2023-04-01T12:50:46;98683.02;;;13.92;73.56
50484;BME280;36409;52.168;20.878;2023-04-01T12:53:42;98682.59;;;14.00;73.55
50484;BME280;36409;52.168;20.878;2023-04-01T12:56:23;98688.00;;;13.97;73.47
50484;BME280;36409;52.168;20.878;2023-04-01T12:59:27;98676.91;;;13.92;73.44
50484;BME280;36409;52.168;20.878;2023-04-01T13:02:14;98680.64;;;13.87;73.64
50484;BME280;36409;52.168;20.878;2023-04-01T13:05:18;98683.84;;;13.93;73.22
50484;BME280;36409;52.168;20.878;2023-04-01T13:08:03;98684.09;;;13.88;72.86
50484;BME280;36409;52.168;20.878;2023-04-01T13:10:50;98684.09;;;13.88;72.84
50484;BME280;36409;52.168;20.878;2023-04-01T13:16:31;98689.70;;;13.98;73.16
50484;BME280;36409;52.168;20.878;2023-04-01T13:19:11;98687.75;;;14.01;72.71
50484;BME280;36409;52.168;20.878;2023-04-01T13:21:54;98692.32;;;13.98;72.73
50484;BME280;36409;52.168;20.878;2023-04-01T13:24:41;98708.30;;;13.77;72.56
50484;BME280;36409;52.168;20.878;2023-04-01T13:27:24;98705.05;;;13.38;72.02
50484;BME280;36409;52.168;20.878;2023-04-01T13:30:09;98713.09;;;13.00;71.60
50484;BME280;36409;52.168;20.878;2023-04-01T13:32:53;98715.47;;;12.70;71.99
50484;BME280;36409;52.168;20.878;2023-04-01T13:35:37;98718.58;;;12.41;71.84
50484;BME280;36409;52.168;20.878;2023-04-01T13:38:44;98721.30;;;12.20;71.36
50484;BME280;36409;52.168;20.878;2023-04-01T13:41:29;98719.12;;;12.11;72.31
50484;BME280;36409;52.168;20.878;2023-04-01T13:44:13;98727.96;;;12.09;72.14
50484;BME280;36409;52.168;20.878;2023-04-01T13:47:12;98724.56;;;12.07;72.10
50484;BME280;36409;52.168;20.878;2023-04-01T13:50:12;98724.61;;;12.05;73.14
50484;BME280;36409;52.168;20.878;2023-04-01T13:53:05;98727.09;;;12.08;72.60
50484;BME280;36409;52.168;20.878;2023-04-01T13:55:54;98730.84;;;12.02;72.06
50484;BME280;36409;52.168;20.878;2023-04-01T13:59:00;98736.28;;;11.98;72.42
50484;BME280;36409;52.168;20.878;2023-04-01T14:01:43;98744.87;;;11.81;72.20
50484;BME280;36409;52.168;20.878;2023-04-01T14:04:40;98750.34;;;11.55;72.54
50484;BME280;36409;52.168;20.878;2023-04-01T14:07:39;98762.05;;;11.26;71.94
50484;BME280;36409;52.168;20.878;2023-04-01T14:10:28;98762.05;;;11.05;72.67
50484;BME280;36409;52.168;20.878;2023-04-01T14:13:07;98765.28;;;10.90;72.09
50484;BME280;36409;52.168;20.878;2023-04-01T14:15:54;98770.08;;;10.78;72.24
50484;BME280;36409;52.168;20.878;2023-04-01T14:18:45;98767.13;;;10.65;73.45
50484;BME280;36409;52.168;20.878;2023-04-01T14:21:35;98772.77;;;10.55;73.40
50484;BME280;36409;52.168;20.878;2023-04-01T14:24:35;98768.81;;;10.44;73.41
50484;BME280;36409;52.168;20.878;2023-04-01T14:27:28;98771.69;;;10.36;72.97
50484;BME280;36409;52.168;20.878;2023-04-01T14:30:25;98770.30;;;10.28;73.31
50484;BME280;36409;52.168;20.878;2023-04-01T14:33:04;98778.96;;;10.28;74.15
50484;BME280;36409;52.168;20.878;2023-04-01T14:35:46;98779.65;;;10.33;74.35
50484;BME280;36409;52.168;20.878;2023-04-01T14:38:39;98780.23;;;10.42;74.20
50484;BME280;36409;52.168;20.878;2023-04-01T14:41:25;98788.96;;;10.41;73.52
50484;BME280;36409;52.168;20.878;2023-04-01T14:44:16;98790.98;;;10.32;74.38
50484;BME280;36409;52.168;20.878;2023-04-01T14:47:06;98793.88;;;10.25;73.48
50484;BME280;36409;52.168;20.878;2023-04-01T14:49:42;98794.27;;;10.14;74.75
50484;BME280;36409;52.168;20.878;2023-04-01T14:52:24;98807.66;;;10.04;74.40
50484;BME280;36409;52.168;20.878;2023-04-01T14:55:04;98810.67;;;9.94;73.81
50484;BME280;36409;52.168;20.878;2023-04-01T14:58:04;98810.20;;;9.82;73.80
50484;BME280;36409;52.168;20.878;2023-04-01T15:00:49;98815.75;;;9.73;74.76
50484;BME280;36409;52.168;20.878;2023-04-01T15:03:31;98821.26;;;9.64;74.96
50484;BME280;36409;52.168;20.878;2023-04-01T15:06:29;98824.03;;;9.59;74.20